createdAt,value
2023-03-18T00:00:35.318Z,1.93
2023-03-18T00:03:04.784Z,1.30
2023-03-18T00:05:31.459Z,1.77
2023-03-18T00:08:02.013Z,1.73
2023-03-18T00:10:28.929Z,1.70
2023-03-18T00:12:59.463Z,1.33
2023-03-18T00:15:29.271Z,1.67
2023-03-18T00:17:59.104Z,1.10
2023-03-18T00:20:38.371Z,1.30
2023-03-18T00:23:08.333Z,1.50
2023-03-18T00:25:35.935Z,1.33
2023-03-18T00:28:04.085Z,1.63
2023-03-18T00:30:31.194Z,1.77
2023-03-18T00:32:59.032Z,1.55
2023-03-18T00:35:30.865Z,1.65
2023-03-18T00:38:03.823Z,1.60
2023-03-18T00:40:43.251Z,0.77
2023-03-18T00:43:12.777Z,1.35
2023-03-18T00:45:42.727Z,1.30
2023-03-18T00:48:09.438Z,1.40
2023-03-18T00:50:37.416Z,1.20
2023-03-18T00:53:04.287Z,1.55
2023-03-18T00:55:31.228Z,1.70
2023-03-18T00:57:57.990Z,2.03
2023-03-18T01:00:26.134Z,1.90
2023-03-18T01:02:53.328Z,2.03
2023-03-18T01:05:20.173Z,1.90
2023-03-18T01:07:49.656Z,1.47
2023-03-18T01:10:16.727Z,1.88
2023-03-18T01:12:47.058Z,1.52
2023-03-18T01:15:21.860Z,1.45
2023-03-18T01:17:49.241Z,2.03
2023-03-18T01:20:19.497Z,1.80
2023-03-18T01:22:46.192Z,1.83
2023-03-18T01:25:16.224Z,1.30
2023-03-18T01:27:43.697Z,1.05
2023-03-18T01:30:11.487Z,1.40
2023-03-18T01:32:38.305Z,1.27
2023-03-18T01:35:05.909Z,1.38
2023-03-18T01:37:33.435Z,1.50
2023-03-18T01:40:00.833Z,1.00
2023-03-18T01:42:27.697Z,1.50
2023-03-18T01:45:28.731Z,1.13
2023-03-18T01:47:58.195Z,1.63
2023-03-18T01:50:32.306Z,1.20
2023-03-18T01:53:20.336Z,1.63
2023-03-18T01:55:49.607Z,1.30
2023-03-18T01:58:24.717Z,1.40
2023-03-18T02:00:57.962Z,1.30
2023-03-18T02:03:27.510Z,1.08
2023-03-18T02:05:54.712Z,1.25
2023-03-18T02:08:21.584Z,1.20
2023-03-18T02:10:49.328Z,1.02
2023-03-18T02:13:19.571Z,1.60
2023-03-18T02:15:53.217Z,1.13
2023-03-18T02:18:34.391Z,1.60
2023-03-18T02:21:01.803Z,1.48
2023-03-18T02:23:58.619Z,1.20
2023-03-18T02:26:28.495Z,0.93
2023-03-18T02:28:58.558Z,1.65
2023-03-18T02:31:27.151Z,1.10
2023-03-18T02:33:54.594Z,1.13
2023-03-18T02:36:30.236Z,1.23
2023-03-18T02:38:57.900Z,1.37
2023-03-18T02:41:28.798Z,1.25
2023-03-18T02:43:58.105Z,1.30
2023-03-18T02:46:27.799Z,1.45
2023-03-18T02:48:55.180Z,1.08
2023-03-18T02:51:26.197Z,1.17
2023-03-18T02:54:00.974Z,1.23
2023-03-18T02:56:27.694Z,1.13
2023-03-18T02:58:54.441Z,1.95
2023-03-18T03:01:22.284Z,1.33
2023-03-18T03:03:49.501Z,1.52
2023-03-18T03:06:22.436Z,1.17
2023-03-18T03:08:49.118Z,1.13
2023-03-18T03:11:15.919Z,1.23
2023-03-18T03:13:45.341Z,0.85
2023-03-18T03:16:14.336Z,1.27
2023-03-18T03:18:44.451Z,0.98
2023-03-18T03:21:13.033Z,0.85
2023-03-18T03:23:41.371Z,1.40
2023-03-18T03:26:08.337Z,1.48
2023-03-18T03:28:35.100Z,1.33
2023-03-18T03:31:06.743Z,1.25
2023-03-18T03:33:33.547Z,1.13
2023-03-18T03:36:00.291Z,1.35
2023-03-18T03:38:27.039Z,1.65
2023-03-18T03:40:54.245Z,1.30
2023-03-18T03:43:21.223Z,1.25
2023-03-18T03:45:48.089Z,1.63
2023-03-18T03:48:14.958Z,1.20
2023-03-18T03:50:41.910Z,1.17
2023-03-18T03:53:10.295Z,1.10
2023-03-18T03:55:37.865Z,1.42
2023-03-18T03:58:04.839Z,1.52
2023-03-18T04:00:33.236Z,1.33
2023-03-18T04:03:00.380Z,0.82
2023-03-18T04:05:27.145Z,1.67
2023-03-18T04:07:55.542Z,1.50
2023-03-18T04:10:26.465Z,1.60
2023-03-18T04:12:54.253Z,1.70
2023-03-18T04:15:22.069Z,1.00
2023-03-18T04:17:51.856Z,1.17
2023-03-18T04:20:19.214Z,1.10
2023-03-18T04:22:46.094Z,1.02
2023-03-18T04:25:14.825Z,1.40
2023-03-18T04:27:42.006Z,1.20
2023-03-18T04:30:10.648Z,0.90
2023-03-18T04:32:37.629Z,1.25
2023-03-18T04:35:07.844Z,1.00
2023-03-18T04:37:37.461Z,1.35
2023-03-18T04:40:12.029Z,1.10
2023-03-18T04:42:39.546Z,1.35
2023-03-18T04:45:07.008Z,1.25
2023-03-18T04:47:40.466Z,1.05
2023-03-18T04:50:13.742Z,1.60
2023-03-18T04:52:41.914Z,1.60
2023-03-18T04:55:09.672Z,0.73
2023-03-18T04:57:38.380Z,1.10
2023-03-18T05:00:11.447Z,1.57
2023-03-18T05:02:39.829Z,1.10
2023-03-18T05:05:07.751Z,1.50
2023-03-18T05:07:37.686Z,0.75
2023-03-18T05:10:12.241Z,1.45
2023-03-18T05:12:44.254Z,1.48
2023-03-18T05:15:12.092Z,1.85
2023-03-18T05:17:41.907Z,1.30
2023-03-18T05:20:13.463Z,0.90
2023-03-18T05:22:40.681Z,1.20
2023-03-18T05:25:08.482Z,1.20
2023-03-18T05:27:35.184Z,1.10
2023-03-18T05:30:02.253Z,1.40
2023-03-18T05:32:29.454Z,1.40
2023-03-18T05:34:56.198Z,1.00
2023-03-18T05:37:22.890Z,1.30
2023-03-18T05:39:49.835Z,1.27
2023-03-18T05:42:17.210Z,1.25
2023-03-18T05:44:44.630Z,1.90
2023-03-18T05:47:11.782Z,1.17
2023-03-18T05:49:38.713Z,1.20
2023-03-18T05:52:05.993Z,1.10
2023-03-18T05:54:32.877Z,1.38
2023-03-18T05:56:59.552Z,1.45
2023-03-18T05:59:26.270Z,0.88
2023-03-18T06:01:53.858Z,1.50
2023-03-18T06:04:20.745Z,1.63
2023-03-18T06:06:51.348Z,1.23
2023-03-18T06:09:18.046Z,1.60
2023-03-18T06:11:45.620Z,1.75
2023-03-18T06:14:12.858Z,1.83
2023-03-18T06:16:43.338Z,1.33
2023-03-18T06:19:11.783Z,1.05
2023-03-18T06:21:42.045Z,1.48
2023-03-18T06:24:09.575Z,2.00
2023-03-18T06:26:36.683Z,1.67
2023-03-18T06:29:05.348Z,1.15
2023-03-18T06:31:32.265Z,2.10
2023-03-18T06:34:01.229Z,1.55
2023-03-18T06:36:28.163Z,2.03
2023-03-18T06:38:58.196Z,2.20
2023-03-18T06:41:24.960Z,2.20
2023-03-18T06:43:54.507Z,1.95
2023-03-18T06:46:21.248Z,1.73
2023-03-18T06:48:48.860Z,1.50
2023-03-18T06:51:15.642Z,1.83
2023-03-18T06:53:42.347Z,0.90
2023-03-18T06:56:09.793Z,1.53
2023-03-18T06:58:36.530Z,1.42
2023-03-18T07:01:04.052Z,1.57
2023-03-18T07:03:30.840Z,1.10
2023-03-18T07:05:57.641Z,1.55
2023-03-18T07:08:24.362Z,1.60
2023-03-18T07:10:57.808Z,1.23
2023-03-18T07:13:28.174Z,1.77
2023-03-18T07:15:56.685Z,1.73
2023-03-18T07:18:24.124Z,2.40
2023-03-18T07:20:53.481Z,1.67
2023-03-18T07:23:20.612Z,2.47
2023-03-18T07:25:47.439Z,2.20
2023-03-18T07:28:14.292Z,2.08
2023-03-18T07:30:41.057Z,2.07
2023-03-18T07:33:07.847Z,1.83
2023-03-18T07:35:35.616Z,2.22
2023-03-18T07:38:03.229Z,1.60
2023-03-18T07:40:30.837Z,2.27
2023-03-18T07:42:57.954Z,1.95
2023-03-18T07:45:29.113Z,2.50
2023-03-18T07:47:58.580Z,2.40
2023-03-18T07:50:26.409Z,1.88
2023-03-18T07:52:53.959Z,2.07
2023-03-18T07:55:21.010Z,1.92
2023-03-18T07:57:49.086Z,2.33
2023-03-18T08:00:16.416Z,1.75
2023-03-18T08:02:43.629Z,1.85
2023-03-18T08:05:11.122Z,1.88
2023-03-18T08:07:38.375Z,1.70
2023-03-18T08:10:06.102Z,1.67
2023-03-18T08:12:49.423Z,1.83
2023-03-18T08:15:19.512Z,1.83
2023-03-18T08:17:47.296Z,1.88
2023-03-18T08:20:15.231Z,1.92
2023-03-18T08:22:42.320Z,1.88
2023-03-18T08:25:09.764Z,1.83
2023-03-18T08:27:36.958Z,1.42
2023-03-18T08:30:04.288Z,2.15
2023-03-18T08:32:32.526Z,2.05
2023-03-18T08:34:59.722Z,1.90
2023-03-18T08:37:32.108Z,1.42
2023-03-18T08:40:01.506Z,1.60
2023-03-18T08:42:29.068Z,1.92
2023-03-18T08:44:59.114Z,1.37
2023-03-18T08:47:27.387Z,1.40
2023-03-18T08:49:54.489Z,1.70
2023-03-18T08:52:22.304Z,2.10
2023-03-18T08:54:49.381Z,1.80
2023-03-18T08:57:18.123Z,1.83
2023-03-18T08:59:48.167Z,1.77
2023-03-18T09:02:18.328Z,1.20
2023-03-18T09:04:48.266Z,1.17
2023-03-18T09:07:16.393Z,1.02
2023-03-18T09:09:44.630Z,1.10
2023-03-18T09:12:12.563Z,0.73
2023-03-18T09:14:40.406Z,1.60
2023-03-18T09:17:07.362Z,1.10
2023-03-18T09:19:34.059Z,0.70
2023-03-18T09:22:00.726Z,0.90
2023-03-18T09:24:27.811Z,0.98
2023-03-18T09:26:54.964Z,0.63
2023-03-18T09:29:21.667Z,0.53
2023-03-18T09:31:48.316Z,0.93
2023-03-18T09:34:15.883Z,1.77
2023-03-18T09:36:49.236Z,0.60
2023-03-18T09:39:15.958Z,2.70
2023-03-18T09:42:01.555Z,3.03
2023-03-18T09:44:34.202Z,2.95
2023-03-18T09:47:18.733Z,1.40
2023-03-18T09:50:18.408Z,2.85
2023-03-18T09:53:03.442Z,1.77
2023-03-18T09:55:40.252Z,1.33
2023-03-18T09:58:41.534Z,1.30
2023-03-18T10:01:11.537Z,0.65
2023-03-18T10:03:54.209Z,0.88
2023-03-18T10:06:24.025Z,1.30
2023-03-18T10:09:05.709Z,0.82
2023-03-18T10:11:37.386Z,0.80
2023-03-18T10:14:22.465Z,0.63
2023-03-18T10:17:03.937Z,0.73
2023-03-18T10:19:34.627Z,0.77
2023-03-18T10:22:19.519Z,0.65
2023-03-18T10:24:57.615Z,0.80
2023-03-18T10:27:54.667Z,0.68
2023-03-18T10:30:43.325Z,0.70
2023-03-18T10:33:27.328Z,0.50
2023-03-18T10:36:19.162Z,0.52
2023-03-18T10:38:50.742Z,0.60
2023-03-18T10:41:33.908Z,0.70
2023-03-18T10:44:23.965Z,0.73
2023-03-18T10:47:00.681Z,0.60
2023-03-18T10:49:38.712Z,0.45
2023-03-18T10:52:38.178Z,0.60
2023-03-18T10:55:14.158Z,0.70
2023-03-18T10:57:41.449Z,0.70
2023-03-18T11:00:33.012Z,0.50
2023-03-18T11:03:01.988Z,0.40
2023-03-18T11:05:37.412Z,0.70
2023-03-18T11:08:04.897Z,0.70
2023-03-18T11:10:40.383Z,0.70
2023-03-18T11:13:19.314Z,0.60
2023-03-18T11:15:54.998Z,0.80
2023-03-18T11:18:24.711Z,0.40
2023-03-18T11:21:01.264Z,0.60
2023-03-18T11:23:54.720Z,0.47
2023-03-18T11:26:23.383Z,0.70
2023-03-18T11:28:58.493Z,0.60
2023-03-18T11:31:27.541Z,0.60
2023-03-18T11:34:04.041Z,0.60
2023-03-18T11:36:32.339Z,0.70
2023-03-18T11:39:05.649Z,0.50
2023-03-18T11:41:32.340Z,0.45
2023-03-18T11:44:18.040Z,0.40
2023-03-18T11:46:53.169Z,0.65
2023-03-18T11:49:25.977Z,0.52
2023-03-18T11:52:22.756Z,0.60
2023-03-18T11:55:36.390Z,0.30
2023-03-18T11:58:27.453Z,0.57
2023-03-18T12:01:07.843Z,0.55
2023-03-18T12:04:13.893Z,0.40
2023-03-18T12:07:03.279Z,0.60
2023-03-18T12:09:38.466Z,0.40
2023-03-18T12:12:24.579Z,0.50
2023-03-18T12:15:18.478Z,0.50
2023-03-18T12:17:59.545Z,0.30
2023-03-18T12:20:55.055Z,0.40
2023-03-18T12:23:42.462Z,0.60
2023-03-18T12:26:23.399Z,0.50
2023-03-18T12:29:09.692Z,0.52
2023-03-18T12:31:59.960Z,0.63
2023-03-18T12:34:42.133Z,0.70
2023-03-18T12:37:34.300Z,0.47
2023-03-18T12:40:15.669Z,0.68
2023-03-18T12:43:20.727Z,0.50
2023-03-18T12:45:53.503Z,0.50
2023-03-18T12:48:43.080Z,0.43
2023-03-18T12:51:15.383Z,0.57
2023-03-18T12:53:52.418Z,0.63
2023-03-18T12:56:21.610Z,0.43
2023-03-18T12:58:50.838Z,0.88
2023-03-18T13:01:28.319Z,0.53
2023-03-18T13:03:58.301Z,0.70
2023-03-18T13:06:28.271Z,0.70
2023-03-18T13:08:58.191Z,0.55
2023-03-18T13:11:44.747Z,0.45
2023-03-18T13:14:11.878Z,0.40
2023-03-18T13:16:39.091Z,0.70
2023-03-18T13:19:06.499Z,0.30
2023-03-18T13:21:40.349Z,0.32
2023-03-18T13:24:12.224Z,0.50
2023-03-18T13:26:57.992Z,0.50
2023-03-18T13:29:46.910Z,0.45
2023-03-18T13:32:17.241Z,0.40
2023-03-18T13:34:50.472Z,0.30
2023-03-18T13:37:23.403Z,0.20
2023-03-18T13:39:50.469Z,0.50
2023-03-18T13:42:26.395Z,0.40
2023-03-18T13:44:58.348Z,0.30
2023-03-18T13:47:34.747Z,0.50
2023-03-18T13:50:13.793Z,0.57
2023-03-18T13:52:44.472Z,0.47
2023-03-18T13:55:42.873Z,0.50
2023-03-18T13:58:13.584Z,0.40
2023-03-18T14:00:42.633Z,0.60
2023-03-18T14:03:22.496Z,0.40
2023-03-18T14:05:51.578Z,0.50
2023-03-18T14:08:43.210Z,0.45
2023-03-18T14:11:38.135Z,0.32
2023-03-18T14:14:06.127Z,0.55
2023-03-18T14:16:37.570Z,0.55
2023-03-18T14:19:34.521Z,0.40
2023-03-18T14:22:16.546Z,0.63
2023-03-18T14:24:45.758Z,0.60
2023-03-18T14:27:22.534Z,0.60
2023-03-18T14:29:49.290Z,0.60
2023-03-18T14:32:34.432Z,0.40
2023-03-18T14:35:17.434Z,0.65
2023-03-18T14:37:59.200Z,0.43
2023-03-18T14:40:26.403Z,0.60
2023-03-18T14:42:58.536Z,0.73
2023-03-18T14:45:25.311Z,0.45
2023-03-18T14:47:57.659Z,0.90
2023-03-18T14:50:28.638Z,0.50
2023-03-18T14:53:08.504Z,0.70
2023-03-18T14:55:39.082Z,0.70
2023-03-18T14:58:16.740Z,0.40
2023-03-18T15:00:47.996Z,0.80
2023-03-18T15:03:22.073Z,0.60
2023-03-18T15:05:56.535Z,0.43
2023-03-18T15:08:37.475Z,0.50
2023-03-18T15:11:13.083Z,0.60
2023-03-18T15:13:42.549Z,0.52
2023-03-18T15:16:12.414Z,0.40
2023-03-18T15:18:41.916Z,0.55
2023-03-18T15:21:17.066Z,0.40
2023-03-18T15:23:52.194Z,0.60
2023-03-18T15:26:23.927Z,0.60
2023-03-18T15:29:00.153Z,0.70
2023-03-18T15:31:32.299Z,0.47
2023-03-18T15:34:09.798Z,0.50
2023-03-18T15:36:44.648Z,0.70
2023-03-18T15:39:37.831Z,0.40
2023-03-18T15:42:17.355Z,0.60
2023-03-18T15:44:46.396Z,0.50
2023-03-18T15:47:17.039Z,0.52
2023-03-18T15:49:55.219Z,0.70
2023-03-18T15:52:27.715Z,0.90
2023-03-18T15:54:54.492Z,0.50
2023-03-18T15:57:35.916Z,0.70
2023-03-18T16:00:05.061Z,0.90
2023-03-18T16:02:33.643Z,0.90
2023-03-18T16:05:26.009Z,0.70
2023-03-18T16:07:53.801Z,0.75
2023-03-18T16:10:22.997Z,0.70
2023-03-18T16:12:54.914Z,1.10
2023-03-18T16:15:24.213Z,0.60
2023-03-18T16:17:55.245Z,1.17
2023-03-18T16:20:28.895Z,0.63
2023-03-18T16:22:56.469Z,0.70
2023-03-18T16:25:24.637Z,0.90
2023-03-18T16:27:54.321Z,0.65
2023-03-18T16:30:24.880Z,0.50
2023-03-18T16:32:53.002Z,0.65
2023-03-18T16:35:25.355Z,0.57
2023-03-18T16:37:55.113Z,0.50
2023-03-18T16:40:27.220Z,1.00
2023-03-18T16:43:03.152Z,0.63
2023-03-18T16:45:33.286Z,0.80
2023-03-18T16:48:05.686Z,0.82
2023-03-18T16:50:37.648Z,0.90
2023-03-18T16:53:18.112Z,0.80
2023-03-18T16:55:50.797Z,0.40
2023-03-18T16:58:28.118Z,0.65
2023-03-18T17:00:55.209Z,0.40
2023-03-18T17:03:22.010Z,0.90
2023-03-18T17:05:50.674Z,0.52
2023-03-18T17:08:21.796Z,0.30
2023-03-18T17:10:52.678Z,0.50
2023-03-18T17:13:32.721Z,0.73
2023-03-18T17:15:59.474Z,0.80
2023-03-18T17:18:26.239Z,0.70
2023-03-18T17:20:53.104Z,0.70
2023-03-18T17:23:22.726Z,0.60
2023-03-18T17:26:02.753Z,0.73
2023-03-18T17:28:46.296Z,0.60
2023-03-18T17:31:13.420Z,0.68
2023-03-18T17:33:40.579Z,0.60
2023-03-18T17:36:07.920Z,0.40
2023-03-18T17:38:35.238Z,0.40
2023-03-18T17:41:22.319Z,0.60
2023-03-18T17:43:49.636Z,0.88
2023-03-18T17:46:16.421Z,0.70
2023-03-18T17:48:43.720Z,0.83
2023-03-18T17:51:17.021Z,0.45
2023-03-18T17:53:56.380Z,0.43
2023-03-18T17:56:25.563Z,0.50
2023-03-18T17:58:55.441Z,0.90
2023-03-18T18:01:29.641Z,0.50
2023-03-18T18:03:58.514Z,0.40
2023-03-18T18:06:29.224Z,0.60
2023-03-18T18:09:00.907Z,0.40
2023-03-18T18:11:35.258Z,0.55
2023-03-18T18:14:22.337Z,0.40
2023-03-18T18:16:50.010Z,0.80
2023-03-18T18:19:17.601Z,0.67
2023-03-18T18:21:45.144Z,0.73
2023-03-18T18:24:27.728Z,0.30
2023-03-18T18:26:54.796Z,0.45
2023-03-18T18:29:24.541Z,0.70
2023-03-18T18:31:52.592Z,0.80
2023-03-18T18:34:23.587Z,0.55
2023-03-18T18:36:51.044Z,0.55
2023-03-18T18:39:18.285Z,0.40
2023-03-18T18:41:46.432Z,0.40
2023-03-18T18:44:13.966Z,0.60
2023-03-18T18:46:41.046Z,0.82
2023-03-18T18:49:22.626Z,1.02
2023-03-18T18:51:54.608Z,1.00
2023-03-18T18:54:22.736Z,1.00
2023-03-18T18:56:49.787Z,2.40
2023-03-18T18:59:25.033Z,1.50
2023-03-18T19:01:52.328Z,2.65
2023-03-18T19:04:21.695Z,4.10
2023-03-18T19:06:50.797Z,4.63
2023-03-18T19:09:20.555Z,3.05
2023-03-18T19:11:47.693Z,2.88
2023-03-18T19:14:26.160Z,2.80
2023-03-18T19:16:55.570Z,2.65
2023-03-18T19:19:27.381Z,2.20
2023-03-18T19:21:54.236Z,1.70
2023-03-18T19:24:26.888Z,2.70
2023-03-18T19:27:04.938Z,2.23
2023-03-18T19:29:38.510Z,1.77
2023-03-18T19:32:07.174Z,1.48
2023-03-18T19:34:37.576Z,2.10
2023-03-18T19:37:05.826Z,1.33
2023-03-18T19:39:32.578Z,2.70
2023-03-18T19:41:59.407Z,2.25
2023-03-18T19:44:26.754Z,2.17
2023-03-18T19:46:55.518Z,2.58
2023-03-18T19:49:35.145Z,2.17
2023-03-18T19:52:19.454Z,2.50
2023-03-18T19:54:47.125Z,1.97
2023-03-18T19:57:18.911Z,1.98
2023-03-18T19:59:48.569Z,1.60
2023-03-18T20:02:23.306Z,1.83
2023-03-18T20:04:51.964Z,1.48
2023-03-18T20:07:20.540Z,1.40
2023-03-18T20:09:47.894Z,1.77
2023-03-18T20:12:36.571Z,1.93
2023-03-18T20:15:13.135Z,2.00
2023-03-18T20:17:50.942Z,1.55
2023-03-18T20:20:20.925Z,1.58
2023-03-18T20:23:12.348Z,1.10
2023-03-18T20:25:43.505Z,1.20
2023-03-18T20:28:19.095Z,0.80
2023-03-18T20:30:47.225Z,1.63
2023-03-18T20:33:14.311Z,1.33
2023-03-18T20:35:47.053Z,1.50
2023-03-18T20:38:30.992Z,2.50
2023-03-18T20:40:57.744Z,1.98
2023-03-18T20:43:30.493Z,2.63
2023-03-18T20:45:59.877Z,1.37
2023-03-18T20:48:27.839Z,1.00
2023-03-18T20:50:57.830Z,1.02
2023-03-18T20:53:30.152Z,0.73
2023-03-18T20:55:57.304Z,0.77
2023-03-18T20:58:26.479Z,0.80
2023-03-18T21:00:54.100Z,1.35
2023-03-18T21:03:27.009Z,1.65
2023-03-18T21:05:56.733Z,0.90
2023-03-18T21:08:24.294Z,2.20
2023-03-18T21:10:54.670Z,1.67
2023-03-18T21:13:37.931Z,1.60
2023-03-18T21:16:07.625Z,2.53
2023-03-18T21:18:35.865Z,1.45
2023-03-18T21:21:02.741Z,1.80
2023-03-18T21:23:37.057Z,2.38
2023-03-18T21:26:07.172Z,2.50
2023-03-18T21:28:39.024Z,2.35
2023-03-18T21:31:20.421Z,1.73
2023-03-18T21:33:50.338Z,2.05
2023-03-18T21:36:17.301Z,2.05
2023-03-18T21:38:43.978Z,2.67
2023-03-18T21:41:27.288Z,1.95
2023-03-18T21:43:54.021Z,2.33
2023-03-18T21:46:24.355Z,1.90
2023-03-18T21:48:52.233Z,1.67
2023-03-18T21:51:37.105Z,1.85
2023-03-18T21:54:04.830Z,1.70
2023-03-18T21:56:31.493Z,1.90
2023-03-18T21:58:58.398Z,1.05
2023-03-18T22:01:33.064Z,1.27
2023-03-18T22:03:59.935Z,1.80
2023-03-18T22:06:29.844Z,1.55
2023-03-18T22:08:59.495Z,2.40
2023-03-18T22:11:27.415Z,1.73
2023-03-18T22:13:59.722Z,1.65
2023-03-18T22:16:26.696Z,1.40
2023-03-18T22:18:56.264Z,1.45
2023-03-18T22:21:27.596Z,1.27
2023-03-18T22:23:54.708Z,1.98
2023-03-18T22:26:23.933Z,1.42
2023-03-18T22:28:50.892Z,2.10
2023-03-18T22:31:24.746Z,1.70
2023-03-18T22:33:54.860Z,1.75
2023-03-18T22:36:21.962Z,2.17
2023-03-18T22:38:49.314Z,1.60
2023-03-18T22:41:22.805Z,1.90
2023-03-18T22:43:50.311Z,1.55
2023-03-18T22:46:17.254Z,1.17
2023-03-18T22:48:44.034Z,1.17
2023-03-18T22:51:21.987Z,1.15
2023-03-18T22:53:51.912Z,1.23
2023-03-18T22:56:21.439Z,2.13
2023-03-18T22:58:48.285Z,1.00
2023-03-18T23:01:17.168Z,2.20
2023-03-18T23:03:47.637Z,1.75
2023-03-18T23:06:20.128Z,1.13
2023-03-18T23:08:47.556Z,1.00
2023-03-18T23:11:24.729Z,1.30
2023-03-18T23:13:52.302Z,1.15
2023-03-18T23:16:21.445Z,1.20
2023-03-18T23:18:49.276Z,1.42
2023-03-18T23:21:21.443Z,1.55
2023-03-18T23:23:48.470Z,1.30
2023-03-18T23:26:15.670Z,1.27
2023-03-18T23:28:45.816Z,1.60
2023-03-18T23:31:14.042Z,1.55
2023-03-18T23:33:40.973Z,0.85
2023-03-18T23:36:08.263Z,1.20
2023-03-18T23:38:35.185Z,1.38
2023-03-18T23:41:04.466Z,1.10
2023-03-18T23:43:31.142Z,1.48
2023-03-18T23:45:58.149Z,1.70
2023-03-18T23:48:24.948Z,1.48
2023-03-18T23:50:51.630Z,0.90
2023-03-18T23:53:18.361Z,1.70
2023-03-18T23:55:47.201Z,1.33
2023-03-18T23:58:14.097Z,1.17
